Air Resources Laboratory banner image
Air Resources Laboratory web site National Oceanic and Atmospheric Administration (NOAA)

ok metar


KADH 171255Z AUTO 09004KT 10SM SCT085 25/20 A3005 RMK AO2 LTG DSNT E=
KADM 171255Z 00000KT 7SM SKC 26/22 A3001=
KAXS 171255Z AUTO 13004KT 10SM CLR 26/19 A3003 RMK AO2 T02640188=
KBVO 171253Z AUTO 00000KT 8SM FEW100 25/24 A3003 RMK AO2 SLP157 T02500239=
KCSM 171253Z AUTO 17008KT 10SM CLR 27/20 A3004 RMK AO2 SLP142 T02720200=
KDUA 171255Z AUTO 00000KT CLR 26/20 A3002 RMK AO2 PWINO=
KEND 171256Z AUTO 08005KT 10SM OVC150 25/24 A3001 RMK AO2 SLP151 T02540241 $=
KFDR 171253Z AUTO 22006KT 10SM CLR 27/17 A2999 RMK AO2 SLP134 T02670172=
KFSI 171256Z AUTO 17004KT 10SM CLR 27/22 A3000 RMK AO2 SLP146 T02650217=
KGAG 171253Z AUTO 24003KT 10SM CLR 24/20 A3005 RMK AO2 SLP144 T02390200=
KGOK 171253Z AUTO 19011KT 1 3/4SM RA FEW070 BKN090 OVC110 26/22 A3001 RMK AO2
 LTG DSNT N AND NW RAB47 SLP150 P0005 T02560217=
KGUY 171253Z AUTO 34003KT 10SM CLR 22/17 A3009 RMK AO2 SLP137 T02220172=
KHBR 171253Z AUTO 18007KT 6SM HZ CLR 27/19 A3002 RMK AO2 SLP143 T02720194=
KLAW 171253Z 16005KT 10SM CLR 25/21 A3001 RMK AO2 SLP145 T02500211=
KLTS 171256Z AUTO 13003KT 10SM CLR 26/19 A3001 RMK AO2 VIS 2 3/4 RWY17R SLP144
 T02550187 VISNO RWY35R CHINO RWY35R $=
KMKO 171253Z AUTO 11004KT 10SM CLR 25/24 A3003 RMK AO2 LTG DSNT SE SLP161
 T02500244=
KMLC 171253Z AUTO 00000KT 7SM -RA FEW048 SCT100 BKN120 24/23 A3004 RMK AO2
 RAB39 SLP160 P0004 T02440228=
KOKC 171252Z 13007KT 10SM BKN110 BKN180 BKN250 26/22 A3001 RMK AO2 SLP146
 T02610217=
KOUN 171251Z 10009KT 10SM FEW150 26/22 A3000=
KPNC 171253Z AUTO 04005KT 10SM BKN080 BKN110 26/22 A3001 RMK AO2 LTG DSNT S-W
 SLP148 T02610222=
KPWA 171253Z 16010KT 10SM CLR 27/22 A3001 RMK AO2 SLP142 T02720217=
KRVS 171253Z 17003KT 10SM CLR 27/23 A3001 RMK AO2 SLP165 T02670228=
KSWO 171253Z 13005KT 10SM FEW100 26/23 A3000 RMK AO2 LTG DSNT NW RAB26E47
 SLP144 P0001 T02560228=
KTIK 171256Z AUTO 12009KT 10SM CLR 26/21 A3001 RMK AO2 SLP154 T02570209=
KTUL 171253Z 15007KT 10SM SCT080 BKN250 28/23 A3000 RMK AO2 SLP148 T02780233=
KWDG 171248Z 09005KT 10SM BKN100 BKN150 25/24 A3001=
KWWR 171255Z AUTO 21006KT 10SM CLR 23/18 A3007 RMK AO2 LTG DSNT NE=